Accueil
METAR-TAF:

METAR-TAF

Aéroports :

Morristown, New Jersey, États-Unis

latitude: 40-48N, longitude: 074-25W, altitude: 57 m

Observation

Le bulletin a été fait il y a 1 heure et 3 minutes, à 16:45 UTC
Vent 10 kt de ouest avec des rafales jusqu'à 18 kt
Température 26°C
Humidité 65%
Pression 1014 hPa
Visibilité: 16.1 km
Nuages fragmentés à une hauteur de 2700 ft
Nuages fragmentés à une hauteur de 6000 ft

METAR: KMMU 201645Z 26010G18KT 10SM BKN027 BKN060 26/19 A2995

Heure: 13:48 (17:48 UTC)


TAF: absent

Observations et prévisions météorologiques de plus de 4000 aéroports (messages METAR et TAF).

Les stations disponibles sont représentées par des disques jaunes et rouges sur la carte.

Passer la souris dessus pour voir le nom de la station.

Cliquer dessus pour voir les observations et prévisions météorologiques.

Pour changer de carte: cliquez sur les boutons verts avec une croix noire pour zoomer, sur le bouton vert avec un tiret pour effectuer un zoom arrière, ou sur les flèches vertes pour les cartes adjacentes.


METAR-TAF: